Strona główna
METAR-TAF:

METAR-TAF

Lotnisko :

Port lotniczy Chengdu-Shuangliu

Chengdu, Chiny

Szerokość geograficzna: 30-40N, Długość geograficzna: 104-01E, wysokość: 508 m

Aktualna obserwacja pogody

Raport powstał 28 minut temu, godzina 14:00 UTC
Wiatr 2 kt z kierunków zmiennych
Temperatura 9°C
Wilgotność 76%
Ciśnienie 1025 hPa
Widzialność 10 km lub więcej
Brak chmur poniżej 1500 m i brak chmur cumulonimbus

METAR: ZUUU 181400Z VRB01MPS CAVOK 09/05 Q1025 NOSIG

czas: 22:28 (14:28 UTC)

Prognoza

Raport powstał 6 godziny i 16 minut temu, godzina 08:12 UTC
Prognoza ważna od 18 godzina 12 UTC do 19 godzina 12 UTC
Wiatr 6 kt od południe
Widzialność: 5000 m
Rozproszone chmury na wysokości 5000 ft
zamglenie
Stopniowe zmiany
od 18 godzina 21 UTC do 18 godzina 22 UTC
Widzialność: 2300 m
Stopniowe zmiany
od 19 godzina 01 UTC do 19 godzina 02 UTC
Widzialność: 5000 m

TAF: ZUUU 180812Z 1812/1912 18003MPS 5000 BR SCT050 TX14/1907Z TN05/1822Z BECMG 1821/1822 2300 BECMG 1901/1902 5000

Obserwacja i prognoza pogody dla ponad 4000 lotnisk (raport METAR i TAF).

Dostępne stacje oznaczono żółtymi i czerwonymi punktami na mapie.

Najedź kursorem aby zobaczyć nazwę stacji.

Kliknij aby zobaczyć obserwacje i prognozy pogody.

Aby zmienić mapę: kliknij na zielony przycisk z czarnym krzyżykiem, aby powiększyć; na zielony przycisk z myślnikiem, aby pomniejszyć; na zielone strzałki, aby przejść do map sąsiednich.


METAR-TAF: